createdAt,value
2023-04-16T00:00:36.228Z,17.52
2023-04-16T00:03:04.228Z,17.32
2023-04-16T00:05:31.809Z,17.34
2023-04-16T00:07:59.259Z,17.32
2023-04-16T00:10:28.387Z,17.29
2023-04-16T00:12:55.890Z,17.37
2023-04-16T00:15:23.958Z,16.88
2023-04-16T00:17:51.481Z,17.60
2023-04-16T00:20:19.131Z,16.76
2023-04-16T00:22:46.963Z,17.44
2023-04-16T00:25:14.445Z,17.14
2023-04-16T00:27:43.458Z,17.75
2023-04-16T00:30:11.314Z,18.07
2023-04-16T00:32:38.854Z,17.43
2023-04-16T00:35:07.702Z,17.29
2023-04-16T00:37:35.678Z,17.55
2023-04-16T00:40:03.441Z,17.53
2023-04-16T00:42:31.012Z,17.59
2023-04-16T00:44:59.945Z,17.07
2023-04-16T00:47:27.651Z,17.22
2023-04-16T00:49:55.439Z,17.40
2023-04-16T00:52:22.942Z,16.01
2023-04-16T00:54:52.529Z,16.62
2023-04-16T00:57:20.682Z,17.72
2023-04-16T00:59:48.161Z,16.47
2023-04-16T01:02:17.832Z,17.76
2023-04-16T01:04:45.526Z,16.57
2023-04-16T01:07:13.149Z,17.56
2023-04-16T01:09:40.658Z,17.49
2023-04-16T01:12:08.135Z,15.91
2023-04-16T01:14:35.654Z,15.72
2023-04-16T01:17:03.682Z,16.82
2023-04-16T01:19:32.936Z,17.02
2023-04-16T01:22:02.122Z,17.67
2023-04-16T01:24:29.545Z,16.60
2023-04-16T01:26:58.646Z,17.71
2023-04-16T01:29:26.733Z,16.47
2023-04-16T01:31:56.662Z,16.17
2023-04-16T01:34:30.223Z,16.88
2023-04-16T01:36:57.657Z,16.07
2023-04-16T01:39:26.734Z,15.80
2023-04-16T01:41:54.665Z,14.81
2023-04-16T01:44:22.116Z,14.18
2023-04-16T01:46:49.844Z,13.96
2023-04-16T01:49:17.540Z,13.85
2023-04-16T01:51:45.077Z,14.22
2023-04-16T01:54:12.773Z,14.47
2023-04-16T01:56:42.397Z,16.94
2023-04-16T01:59:10.108Z,16.19
2023-04-16T02:01:41.148Z,16.96
2023-04-16T02:04:09.755Z,15.46
2023-04-16T02:06:37.308Z,16.64
2023-04-16T02:09:04.908Z,16.29
2023-04-16T02:11:32.865Z,17.09
2023-04-16T02:14:02.075Z,15.95
2023-04-16T02:16:29.684Z,17.37
2023-04-16T02:19:04.533Z,17.41
2023-04-16T02:21:35.241Z,16.86
2023-04-16T02:24:03.029Z,16.13
2023-04-16T02:26:31.619Z,17.12
2023-04-16T02:29:06.965Z,16.96
2023-04-16T02:31:45.482Z,17.76
2023-04-16T02:34:14.113Z,17.82
2023-04-16T02:36:42.699Z,16.08
2023-04-16T02:39:11.414Z,17.58
2023-04-16T02:41:39.158Z,16.43
2023-04-16T02:44:08.337Z,17.63
2023-04-16T02:46:36.119Z,17.82
2023-04-16T02:49:03.591Z,16.66
2023-04-16T02:51:31.056Z,17.14
2023-04-16T02:53:58.519Z,16.87
2023-04-16T02:56:26.022Z,16.76
2023-04-16T02:58:53.494Z,16.74
2023-04-16T03:01:22.510Z,17.31
2023-04-16T03:03:50.072Z,17.51
2023-04-16T03:06:17.581Z,17.40
2023-04-16T03:08:45.088Z,16.06
2023-04-16T03:11:12.554Z,16.01
2023-04-16T03:13:39.990Z,17.51
2023-04-16T03:16:08.154Z,17.99
2023-04-16T03:18:37.267Z,17.79
2023-04-16T03:21:05.413Z,18.05
2023-04-16T03:23:32.848Z,18.08
2023-04-16T03:26:00.460Z,17.62
2023-04-16T03:28:28.382Z,17.86
2023-04-16T03:30:55.916Z,17.56
2023-04-16T03:33:23.432Z,17.30
2023-04-16T03:35:57.637Z,17.24
2023-04-16T03:38:27.208Z,17.54
2023-04-16T03:40:57.309Z,17.86
2023-04-16T03:43:24.850Z,17.71
2023-04-16T03:45:52.991Z,17.61
2023-04-16T03:48:23.776Z,17.89
2023-04-16T03:50:51.281Z,17.19
2023-04-16T03:53:22.061Z,17.42
2023-04-16T03:55:50.819Z,17.44
2023-04-16T03:58:18.889Z,17.57
2023-04-16T04:00:47.734Z,17.79
2023-04-16T04:03:16.960Z,17.88
2023-04-16T04:05:46.820Z,17.79
2023-04-16T04:08:17.586Z,17.93
2023-04-16T04:10:46.633Z,18.27
2023-04-16T04:13:15.498Z,18.19
2023-04-16T04:15:44.688Z,18.13
2023-04-16T04:18:12.480Z,17.66
2023-04-16T04:20:40.398Z,17.92
2023-04-16T04:23:08.552Z,17.80
2023-04-16T04:25:36.030Z,18.43
2023-04-16T04:28:05.319Z,17.75
2023-04-16T04:30:32.757Z,18.01
2023-04-16T04:33:00.388Z,18.31
2023-04-16T04:35:28.003Z,17.76
2023-04-16T04:37:55.799Z,17.41
2023-04-16T04:40:23.335Z,17.97
2023-04-16T04:42:52.912Z,17.86
2023-04-16T04:45:24.730Z,18.23
2023-04-16T04:47:53.805Z,17.61
2023-04-16T04:50:21.992Z,18.18
2023-04-16T04:52:49.491Z,17.46
2023-04-16T04:55:16.957Z,17.69
2023-04-16T04:57:44.453Z,17.57
2023-04-16T05:00:12.712Z,18.00
2023-04-16T05:02:49.055Z,17.62
2023-04-16T05:05:16.760Z,17.57
2023-04-16T05:07:45.085Z,17.76
2023-04-16T05:10:12.537Z,17.55
2023-04-16T05:12:40.415Z,17.41
2023-04-16T05:15:09.095Z,18.18
2023-04-16T05:17:36.737Z,18.12
2023-04-16T05:20:07.341Z,17.38
2023-04-16T05:22:34.993Z,18.06
2023-04-16T05:25:02.490Z,18.13
2023-04-16T05:27:29.969Z,18.29
2023-04-16T05:29:57.467Z,17.70
2023-04-16T05:32:26.576Z,17.64
2023-04-16T05:34:54.440Z,17.75
2023-04-16T05:37:23.419Z,18.08
2023-04-16T05:39:50.967Z,17.94
2023-04-16T05:42:18.551Z,18.12
2023-04-16T05:44:45.984Z,17.99
2023-04-16T05:47:13.480Z,17.21
2023-04-16T05:49:41.052Z,16.97
2023-04-16T05:52:08.709Z,18.07
2023-04-16T05:54:37.799Z,18.09
2023-04-16T05:57:05.220Z,18.19
2023-04-16T05:59:32.648Z,17.79
2023-04-16T06:02:00.233Z,18.24
2023-04-16T06:04:27.850Z,18.41
2023-04-16T06:06:55.405Z,18.33
2023-04-16T06:09:22.886Z,18.28
2023-04-16T06:11:51.925Z,18.10
2023-04-16T06:14:19.420Z,18.14
2023-04-16T06:16:47.376Z,18.27
2023-04-16T06:19:14.948Z,18.23
2023-04-16T06:21:42.502Z,17.62
2023-04-16T06:24:10.013Z,18.28
2023-04-16T06:26:37.462Z,18.00
2023-04-16T06:29:06.370Z,18.31
2023-04-16T06:31:33.989Z,17.72
2023-04-16T06:34:01.573Z,17.82
2023-04-16T06:36:29.123Z,17.61
2023-04-16T06:38:56.645Z,17.17
2023-04-16T06:41:24.217Z,18.65
2023-04-16T06:43:51.751Z,17.68
2023-04-16T06:46:20.745Z,18.13
2023-04-16T06:48:48.243Z,17.59
2023-04-16T06:51:16.349Z,17.77
2023-04-16T06:53:43.960Z,17.97
2023-04-16T06:56:11.493Z,18.26
2023-04-16T06:58:39.003Z,18.33
2023-04-16T07:01:06.794Z,18.45
2023-04-16T07:03:36.743Z,17.15
2023-04-16T07:06:05.003Z,18.28
2023-04-16T07:08:32.508Z,18.01
2023-04-16T07:11:00.065Z,17.94
2023-04-16T07:13:27.774Z,17.12
2023-04-16T07:15:55.378Z,17.89
2023-04-16T07:18:23.017Z,18.07
2023-04-16T07:20:51.971Z,17.73
2023-04-16T07:23:19.679Z,17.57
2023-04-16T07:25:47.151Z,17.80
2023-04-16T07:28:14.638Z,17.92
2023-04-16T07:30:42.196Z,17.48
2023-04-16T07:33:10.178Z,18.02
2023-04-16T07:35:37.668Z,17.47
2023-04-16T07:38:06.673Z,17.39
2023-04-16T07:40:34.173Z,17.57
2023-04-16T07:43:01.866Z,17.82
2023-04-16T07:45:29.397Z,17.58
2023-04-16T07:47:56.857Z,18.41
2023-04-16T07:50:24.871Z,16.97
2023-04-16T07:52:52.384Z,17.42
2023-04-16T07:55:21.518Z,17.21
2023-04-16T07:57:49.011Z,17.68
2023-04-16T08:00:16.873Z,17.55
2023-04-16T08:02:45.010Z,17.49
2023-04-16T08:05:13.484Z,17.99
2023-04-16T08:07:41.242Z,17.52
2023-04-16T08:10:09.646Z,17.05
2023-04-16T08:12:38.621Z,15.65
2023-04-16T08:15:07.409Z,16.67
2023-04-16T08:17:35.008Z,16.21
2023-04-16T08:20:02.580Z,17.33
2023-04-16T08:22:30.096Z,17.76
2023-04-16T08:24:57.647Z,17.36
2023-04-16T08:27:25.249Z,17.50
2023-04-16T08:29:54.469Z,16.14
2023-04-16T08:32:22.123Z,15.83
2023-04-16T08:34:50.512Z,17.24
2023-04-16T08:37:18.102Z,17.58
2023-04-16T08:39:45.595Z,18.10
2023-04-16T08:42:19.382Z,18.08
2023-04-16T08:44:52.313Z,17.81
2023-04-16T08:47:24.218Z,17.85
2023-04-16T08:49:58.367Z,16.62
2023-04-16T08:52:28.896Z,16.98
2023-04-16T08:55:02.821Z,17.12
2023-04-16T08:57:37.703Z,16.56
2023-04-16T09:00:06.747Z,16.26
2023-04-16T09:02:36.722Z,16.39
2023-04-16T09:05:07.434Z,17.45
2023-04-16T09:07:35.419Z,16.00
2023-04-16T09:10:03.819Z,17.27
2023-04-16T09:12:31.466Z,16.69
2023-04-16T09:15:01.024Z,17.03
2023-04-16T09:17:29.007Z,15.34
2023-04-16T09:19:58.062Z,14.96
2023-04-16T09:22:25.614Z,17.24
2023-04-16T09:24:53.097Z,17.48
2023-04-16T09:27:22.028Z,17.46
2023-04-16T09:29:50.695Z,17.33
2023-04-16T09:32:18.319Z,16.75
2023-04-16T09:34:58.269Z,17.31
2023-04-16T09:37:27.023Z,16.84
2023-04-16T09:39:57.030Z,15.80
2023-04-16T09:42:26.393Z,16.34
2023-04-16T09:44:54.296Z,15.05
2023-04-16T09:47:22.580Z,17.04
2023-04-16T09:49:50.088Z,15.32
2023-04-16T09:52:20.735Z,16.31
2023-04-16T09:54:49.226Z,14.64
2023-04-16T09:57:19.754Z,14.73
2023-04-16T09:59:47.450Z,17.19
2023-04-16T10:02:16.593Z,15.96
2023-04-16T10:04:48.878Z,15.92
2023-04-16T10:07:17.013Z,15.88
2023-04-16T10:09:46.652Z,16.84
2023-04-16T10:12:14.421Z,16.00
2023-04-16T10:14:42.498Z,16.18
2023-04-16T10:17:10.853Z,15.54
2023-04-16T10:19:38.817Z,16.31
2023-04-16T10:22:06.466Z,16.00
2023-04-16T10:24:34.847Z,16.07
2023-04-16T10:27:03.923Z,16.93
2023-04-16T10:29:32.053Z,15.77
2023-04-16T10:32:00.686Z,16.65
2023-04-16T10:34:28.814Z,15.49
2023-04-16T10:36:56.429Z,14.50
2023-04-16T10:39:24.820Z,14.44
2023-04-16T10:42:09.092Z,14.25
2023-04-16T10:44:36.738Z,14.58
2023-04-16T10:47:10.645Z,14.11
2023-04-16T10:49:38.097Z,14.18
2023-04-16T10:52:10.117Z,14.35
2023-04-16T10:54:37.758Z,14.75
2023-04-16T10:57:06.450Z,15.02
2023-04-16T10:59:37.467Z,14.70
2023-04-16T11:02:08.902Z,14.64
2023-04-16T11:04:38.106Z,14.04
2023-04-16T11:07:13.113Z,14.94
2023-04-16T11:09:51.109Z,14.24
2023-04-16T11:12:20.286Z,14.25
2023-04-16T11:14:51.409Z,13.96
2023-04-16T11:17:19.548Z,14.87
2023-04-16T11:19:47.460Z,14.26
2023-04-16T11:22:17.248Z,14.93
2023-04-16T11:24:45.715Z,14.31
2023-04-16T11:27:13.984Z,14.68
2023-04-16T11:29:41.604Z,15.75
2023-04-16T11:32:10.796Z,15.46
2023-04-16T11:34:45.171Z,14.33
2023-04-16T11:37:12.668Z,15.81
2023-04-16T11:39:52.851Z,14.18
2023-04-16T11:42:21.696Z,14.26
2023-04-16T11:45:02.441Z,14.46
2023-04-16T11:47:31.975Z,14.23
2023-04-16T11:50:16.797Z,15.83
2023-04-16T11:52:44.394Z,14.73
2023-04-16T11:55:12.839Z,14.89
2023-04-16T11:57:40.391Z,14.95
2023-04-16T12:00:10.585Z,14.11
2023-04-16T12:02:44.623Z,15.88
2023-04-16T12:05:27.923Z,15.52
2023-04-16T12:07:55.748Z,14.02
2023-04-16T12:10:23.493Z,13.96
2023-04-16T12:12:51.005Z,14.37
2023-04-16T12:15:18.526Z,14.21
2023-04-16T12:17:47.475Z,13.81
2023-04-16T12:20:15.887Z,14.22
2023-04-16T12:22:46.412Z,14.19
2023-04-16T12:25:15.685Z,15.51
2023-04-16T12:27:44.786Z,14.09
2023-04-16T12:30:14.148Z,13.87
2023-04-16T12:32:42.557Z,13.78
2023-04-16T12:35:11.832Z,14.98
2023-04-16T12:37:39.485Z,13.89
2023-04-16T12:40:08.050Z,14.08
2023-04-16T12:42:35.585Z,14.20
2023-04-16T12:45:03.968Z,14.60
2023-04-16T12:47:31.784Z,14.22
2023-04-16T12:49:59.705Z,14.33
2023-04-16T12:52:28.765Z,15.34
2023-04-16T12:54:56.256Z,14.20
2023-04-16T12:57:23.715Z,14.29
2023-04-16T12:59:51.739Z,14.06
2023-04-16T13:02:19.403Z,14.81
2023-04-16T13:04:47.045Z,13.96
2023-04-16T13:07:14.648Z,13.87
2023-04-16T13:09:43.618Z,15.43
2023-04-16T13:12:11.168Z,14.01
2023-04-16T13:14:38.745Z,14.24
2023-04-16T13:17:06.228Z,15.45
2023-04-16T13:19:34.035Z,13.69
2023-04-16T13:22:01.559Z,13.79
2023-04-16T13:24:30.266Z,13.95
2023-04-16T13:26:59.173Z,13.99
2023-04-16T13:29:26.672Z,13.67
2023-04-16T13:31:54.897Z,13.67
2023-04-16T13:34:22.460Z,13.34
2023-04-16T13:36:50.059Z,13.76
2023-04-16T13:39:17.536Z,13.21
2023-04-16T13:41:46.897Z,13.76
2023-04-16T13:44:15.920Z,13.76
2023-04-16T13:46:43.497Z,13.29
2023-04-16T13:49:11.375Z,13.59
2023-04-16T13:51:39.072Z,13.51
2023-04-16T13:54:06.551Z,13.33
2023-04-16T13:56:34.027Z,13.53
2023-04-16T13:59:01.558Z,13.59
2023-04-16T14:01:30.586Z,13.42
2023-04-16T14:03:58.164Z,13.22
2023-04-16T14:06:25.746Z,13.46
2023-04-16T14:08:53.189Z,13.52
2023-04-16T14:11:20.794Z,13.39
2023-04-16T14:13:48.455Z,13.07
2023-04-16T14:16:16.287Z,13.27
2023-04-16T14:18:45.213Z,13.45
2023-04-16T14:21:13.583Z,13.61
2023-04-16T14:23:41.623Z,13.50
2023-04-16T14:26:09.110Z,13.22
2023-04-16T14:28:37.112Z,13.45
2023-04-16T14:31:04.709Z,13.44
2023-04-16T14:33:32.247Z,13.33
2023-04-16T14:36:02.910Z,13.48
2023-04-16T14:38:31.008Z,13.44
2023-04-16T14:40:58.542Z,13.42
2023-04-16T14:43:26.059Z,13.68
2023-04-16T14:45:53.626Z,13.29
2023-04-16T14:48:21.137Z,13.27
2023-04-16T14:50:48.619Z,13.27
2023-04-16T14:53:17.605Z,15.67
2023-04-16T14:55:45.136Z,14.84
2023-04-16T14:58:13.095Z,13.80
2023-04-16T15:00:41.015Z,13.40
2023-04-16T15:03:08.849Z,13.81
2023-04-16T15:05:37.005Z,13.18
2023-04-16T15:08:05.070Z,13.22
2023-04-16T15:10:34.034Z,13.30
2023-04-16T15:13:01.737Z,13.13
2023-04-16T15:15:29.412Z,13.35
2023-04-16T15:17:57.183Z,13.57
2023-04-16T15:20:24.646Z,13.35
2023-04-16T15:22:53.927Z,13.45
2023-04-16T15:25:21.397Z,13.44
2023-04-16T15:27:50.276Z,13.27
2023-04-16T15:30:18.067Z,13.12
2023-04-16T15:32:45.671Z,13.09
2023-04-16T15:35:14.212Z,13.36
2023-04-16T15:37:41.696Z,13.81
2023-04-16T15:40:09.876Z,13.69
2023-04-16T15:42:37.911Z,13.19
2023-04-16T15:45:07.626Z,13.38
2023-04-16T15:47:35.470Z,13.50
2023-04-16T15:50:04.129Z,13.26
2023-04-16T15:52:31.688Z,14.01
2023-04-16T15:55:00.734Z,13.72
2023-04-16T15:57:29.178Z,13.76
2023-04-16T16:00:06.371Z,13.70
2023-04-16T16:02:37.727Z,13.86
2023-04-16T16:05:06.788Z,13.57
2023-04-16T16:07:34.472Z,13.46
2023-04-16T16:10:02.251Z,13.75
2023-04-16T16:12:30.438Z,13.96
2023-04-16T16:14:58.513Z,13.70
2023-04-16T16:17:26.435Z,13.68
2023-04-16T16:19:55.673Z,13.58
2023-04-16T16:22:23.217Z,14.17
2023-04-16T16:24:51.212Z,13.58
2023-04-16T16:27:19.041Z,13.46
2023-04-16T16:29:46.986Z,13.37
2023-04-16T16:32:14.757Z,13.26
2023-04-16T16:34:42.357Z,13.58
2023-04-16T16:37:11.385Z,13.62
2023-04-16T16:39:39.116Z,13.29
2023-04-16T16:42:06.777Z,13.41
2023-04-16T16:44:34.379Z,14.44
2023-04-16T16:47:01.888Z,13.80
2023-04-16T16:49:29.430Z,13.86
2023-04-16T16:51:56.898Z,13.71
2023-04-16T16:54:25.881Z,13.89
2023-04-16T16:56:53.409Z,14.15
2023-04-16T16:59:20.857Z,14.40
2023-04-16T17:01:48.373Z,13.79
2023-04-16T17:04:17.851Z,13.98
2023-04-16T17:06:47.642Z,15.02
2023-04-16T17:09:15.151Z,14.61
2023-04-16T17:11:44.213Z,13.86
2023-04-16T17:14:11.716Z,14.16
2023-04-16T17:16:39.231Z,13.99
2023-04-16T17:19:06.993Z,14.48
2023-04-16T17:21:34.426Z,13.88
2023-04-16T17:24:01.881Z,14.75
2023-04-16T17:26:29.484Z,14.42
2023-04-16T17:28:58.500Z,14.61
2023-04-16T17:31:27.133Z,13.82
2023-04-16T17:33:54.820Z,14.20
2023-04-16T17:36:22.346Z,14.06
2023-04-16T17:38:49.811Z,14.37
2023-04-16T17:41:17.326Z,14.94
2023-04-16T17:43:47.881Z,14.76
2023-04-16T17:46:16.866Z,16.02
2023-04-16T17:48:44.538Z,15.92
2023-04-16T17:51:12.265Z,14.93
2023-04-16T17:53:39.797Z,14.50
2023-04-16T17:56:07.304Z,15.96
2023-04-16T17:58:34.964Z,14.89
2023-04-16T18:01:02.755Z,14.16
2023-04-16T18:03:32.673Z,15.84
2023-04-16T18:06:00.725Z,15.13
2023-04-16T18:08:28.358Z,14.86
2023-04-16T18:10:56.227Z,14.36
2023-04-16T18:13:24.289Z,15.88
2023-04-16T18:15:51.857Z,15.82
2023-04-16T18:18:19.404Z,14.44
2023-04-16T18:20:48.351Z,14.74
2023-04-16T18:23:15.847Z,15.78
2023-04-16T18:25:44.585Z,14.82
2023-04-16T18:28:14.063Z,14.26
2023-04-16T18:30:42.623Z,14.77
2023-04-16T18:35:40.803Z,15.89
2023-04-16T18:38:10.328Z,15.53
2023-04-16T18:40:38.245Z,15.13
2023-04-16T18:43:05.727Z,14.50
2023-04-16T18:45:34.286Z,14.13
2023-04-16T18:48:02.108Z,14.90
2023-04-16T18:50:29.828Z,14.87
2023-04-16T18:52:57.329Z,14.43
2023-04-16T18:55:26.787Z,15.95
2023-04-16T18:57:54.227Z,15.37
2023-04-16T19:00:21.836Z,16.13
2023-04-16T19:02:49.400Z,13.96
2023-04-16T19:05:17.081Z,14.95
2023-04-16T19:07:44.561Z,16.23
2023-04-16T19:10:12.052Z,13.82
2023-04-16T19:12:40.981Z,13.69
2023-04-16T19:15:08.974Z,15.77
2023-04-16T19:17:36.670Z,14.77
2023-04-16T19:20:04.892Z,15.03
2023-04-16T19:22:32.374Z,15.42
2023-04-16T19:25:00.047Z,14.55
2023-04-16T19:27:29.273Z,14.59
2023-04-16T19:29:58.165Z,14.96
2023-04-16T19:32:25.720Z,14.69
2023-04-16T19:34:53.218Z,15.16
2023-04-16T19:37:20.669Z,14.68
2023-04-16T19:39:49.129Z,14.90
2023-04-16T19:42:16.546Z,16.59
2023-04-16T19:44:44.086Z,14.68
2023-04-16T19:47:13.023Z,15.71
2023-04-16T19:49:40.693Z,14.46
2023-04-16T19:52:08.174Z,16.71
2023-04-16T19:54:35.750Z,16.38
2023-04-16T19:57:03.337Z,16.21
2023-04-16T19:59:30.816Z,15.72
2023-04-16T20:01:58.378Z,15.79
2023-04-16T20:04:27.479Z,15.58
2023-04-16T20:06:54.981Z,16.92
2023-04-16T20:09:22.752Z,15.08
2023-04-16T20:11:50.210Z,15.56
2023-04-16T20:14:17.790Z,15.84
2023-04-16T20:16:45.290Z,17.03
2023-04-16T20:19:13.615Z,16.30
2023-04-16T20:21:43.133Z,16.53
2023-04-16T20:24:10.582Z,15.42
2023-04-16T20:26:38.034Z,15.58
2023-04-16T20:29:05.510Z,15.99
2023-04-16T20:31:32.956Z,17.20
2023-04-16T20:34:00.538Z,15.03
2023-04-16T20:36:28.037Z,14.73
2023-04-16T20:38:57.374Z,14.71
2023-04-16T20:41:24.822Z,16.22
2023-04-16T20:43:52.312Z,15.13
2023-04-16T20:46:21.316Z,14.84
2023-04-16T20:48:50.063Z,14.96
2023-04-16T20:51:17.609Z,15.54
2023-04-16T20:53:45.069Z,15.12
2023-04-16T20:56:13.993Z,15.07
2023-04-16T20:58:42.146Z,16.30
2023-04-16T21:01:09.678Z,15.18
2023-04-16T21:03:37.403Z,14.77
2023-04-16T21:06:05.091Z,16.63
2023-04-16T21:08:32.658Z,16.12
2023-04-16T21:11:00.172Z,15.33
2023-04-16T21:13:32.265Z,15.38
2023-04-16T21:15:59.748Z,15.73
2023-04-16T21:18:27.235Z,15.18
2023-04-16T21:20:55.668Z,16.99
2023-04-16T21:23:23.198Z,15.06
2023-04-16T21:25:50.652Z,16.47
2023-04-16T21:28:18.216Z,16.28
2023-04-16T21:30:50.791Z,15.65
2023-04-16T21:33:19.124Z,15.41
2023-04-16T21:35:52.069Z,15.80
2023-04-16T21:38:20.289Z,16.09
2023-04-16T21:40:47.948Z,16.55
2023-04-16T21:43:15.429Z,15.23
2023-04-16T21:45:42.889Z,16.09
2023-04-16T21:48:12.455Z,15.48
2023-04-16T21:50:40.031Z,16.73
2023-04-16T21:53:07.470Z,16.44
2023-04-16T21:55:35.034Z,16.03
2023-04-16T21:58:02.666Z,16.86
2023-04-16T22:00:30.262Z,16.19
2023-04-16T22:02:58.019Z,16.23
2023-04-16T22:05:27.168Z,15.50
2023-04-16T22:07:54.632Z,16.38
2023-04-16T22:10:22.084Z,15.46
2023-04-16T22:12:49.666Z,15.06
2023-04-16T22:15:17.409Z,16.85
2023-04-16T22:17:44.894Z,16.68
2023-04-16T22:20:12.820Z,15.91
2023-04-16T22:22:41.849Z,14.68
2023-04-16T22:25:09.995Z,16.48
2023-04-16T22:27:37.846Z,16.35
2023-04-16T22:30:06.438Z,16.95
2023-04-16T22:32:33.991Z,16.82
2023-04-16T22:35:01.617Z,15.78
2023-04-16T22:37:29.102Z,16.72
2023-04-16T22:39:58.005Z,16.05
2023-04-16T22:42:25.469Z,17.33
2023-04-16T22:44:52.948Z,16.88
2023-04-16T22:47:20.434Z,17.46
2023-04-16T22:49:47.917Z,17.23
2023-04-16T22:52:15.504Z,15.65
2023-04-16T22:54:42.952Z,15.39
2023-04-16T22:57:11.878Z,16.28
2023-04-16T22:59:39.406Z,16.09
2023-04-16T23:02:06.917Z,16.91
2023-04-16T23:04:34.924Z,17.01
2023-04-16T23:07:02.469Z,16.97
2023-04-16T23:09:29.926Z,17.10
2023-04-16T23:11:57.380Z,15.80
2023-04-16T23:14:26.304Z,17.77
2023-04-16T23:16:53.759Z,16.09
2023-04-16T23:19:21.197Z,17.75
2023-04-16T23:21:48.739Z,17.38
2023-04-16T23:24:16.190Z,17.13
2023-04-16T23:26:43.727Z,17.19
2023-04-16T23:29:11.448Z,17.16
2023-04-16T23:31:40.625Z,16.89
2023-04-16T23:34:08.595Z,17.78
2023-04-16T23:36:36.040Z,15.97
2023-04-16T23:39:03.851Z,18.07
2023-04-16T23:41:31.653Z,17.46
2023-04-16T23:43:59.122Z,17.31
2023-04-16T23:46:26.641Z,18.32
2023-04-16T23:48:55.559Z,16.95
2023-04-16T23:51:23.000Z,17.65
2023-04-16T23:53:50.782Z,17.59
2023-04-16T23:56:18.408Z,17.97
2023-04-16T23:58:45.901Z,15.81
